Wichita Mid Continent Airport
KICT : now visible

Airfield :











YOU CAN JOIN US ON...

 
LOGIN :

Register | Disclaimer

   EN    FR    IT 

 









Legend :    VFR   Marginal VFR   IFR   Intensive IFR   Very Intensive IFR
Visi :
Ceiling :
>= 8 km
>= 3000ft
5 to 8 km
1000 to 3000 ft
1500m to 5 km
500 to 1000 ft
800 to 1500m
200 to 500 ft
< 800m
< 200 ft
Symbols :   Thunderstorms  Fog  Heavy snow  Heavy precipitations  Wind > 20 kt







- Airport Elevation : 1333 ft
- IATA code : ICT


KICT - Wichita Mid Continent

CURRENT METAR :
  • 251953Z 17015G21KT 10SM FEW039 SCT048 BKN060 31/24 A2981 RMK AO2 SLP082 T03110239

EXPIRED METARs :
  • 251853Z 17017G23KT 10SM FEW023 SCT028 BKN036 29/23 A2982 RMK AO2 SLP084 T02890228
  • 251831Z 14014G21KT 10SM BKN025 BKN032 BKN039 27/22 A2982 RMK AO2 T02720222
  • 251820Z 15015KT 10SM SCT021 SCT027 BKN037 27/22 A2983 RMK AO2 T02720222
  • 251753Z 16013G24KT 10SM BKN021 OVC029 26/21 A2984 RMK AO2 PK WND 17026/1700 SLP093 T02610211 10267 20194 56003

TAF KICT
Valid from the 25 at 18:00 until the 26 at 18:00 UTC


251731Z 2518/2618 17020G30KT P6SM SCT018 BKN025
TEMPO 2518/2519 BKN018
FM251930 18020G30KT P6SM BKN035
FM252300 17015G20KT P6SM VCTS BKN040CB
FM260300 17012KT P6SM SCT040 BKN250
FM260800 17012KT P6SM BKN015
FM261100 17011KT P6SM BKN008
FM261700 17012KT P6SM BKN025
KZKC FIR / North America



MET'MAP, your aeronautical weather chart ! - Copyright ORBIFLY December 2007 - Disclaimer

ORBIFLY MET'MAP TEAM :

Programming & Development : Alexandra Zaïnal
Concept & Development : Baudouin d'Aumeries
Co-Development & Prog : Marc-Olivier Méhu
Technical & hardware support : Manuel Goepfert

Contact : metmap@orbifly.com




SOURCES & CREDITS :

   NOAA       Earth
Advisory